sensor_id;sensor_type;location;lat;lon;timestamp;P1;durP1;ratioP1;P2;durP2;ratioP2
26106;SDS011;13866;50.748;12.630;2022-09-12T00:01:36;24.17;;;19.83;;
26106;SDS011;13866;50.748;12.630;2022-09-12T00:04:01;21.10;;;19.07;;
26106;SDS011;13866;50.748;12.630;2022-09-12T00:06:31;20.57;;;18.60;;
26106;SDS011;13866;50.748;12.630;2022-09-12T00:08:59;29.53;;;18.47;;
26106;SDS011;13866;50.748;12.630;2022-09-12T00:11:27;19.27;;;17.53;;
26106;SDS011;13866;50.748;12.630;2022-09-12T00:13:56;19.70;;;18.00;;
26106;SDS011;13866;50.748;12.630;2022-09-12T00:16:24;20.40;;;18.40;;
26106;SDS011;13866;50.748;12.630;2022-09-12T00:18:51;19.20;;;17.47;;
26106;SDS011;13866;50.748;12.630;2022-09-12T00:21:17;20.80;;;18.83;;
26106;SDS011;13866;50.748;12.630;2022-09-12T00:23:44;21.20;;;18.37;;
26106;SDS011;13866;50.748;12.630;2022-09-12T00:26:11;20.57;;;18.50;;
26106;SDS011;13866;50.748;12.630;2022-09-12T00:28:38;21.83;;;19.53;;
26106;SDS011;13866;50.748;12.630;2022-09-12T00:31:06;25.07;;;20.83;;
26106;SDS011;13866;50.748;12.630;2022-09-12T00:33:33;21.30;;;19.20;;
26106;SDS011;13866;50.748;12.630;2022-09-12T00:36:02;22.23;;;20.07;;
26106;SDS011;13866;50.748;12.630;2022-09-12T00:38:29;20.90;;;18.67;;
26106;SDS011;13866;50.748;12.630;2022-09-12T00:40:55;20.90;;;18.70;;
26106;SDS011;13866;50.748;12.630;2022-09-12T00:43:40;19.63;;;17.97;;
26106;SDS011;13866;50.748;12.630;2022-09-12T00:49:14;20.73;;;18.80;;
26106;SDS011;13866;50.748;12.630;2022-09-12T00:51:54;21.60;;;18.33;;
26106;SDS011;13866;50.748;12.630;2022-09-12T00:54:26;22.77;;;17.20;;
26106;SDS011;13866;50.748;12.630;2022-09-12T00:57:00;20.27;;;18.30;;
26106;SDS011;13866;50.748;12.630;2022-09-12T00:59:31;21.57;;;19.43;;
26106;SDS011;13866;50.748;12.630;2022-09-12T01:02:03;20.50;;;18.67;;
26106;SDS011;13866;50.748;12.630;2022-09-12T01:04:29;20.13;;;18.17;;
26106;SDS011;13866;50.748;12.630;2022-09-12T01:06:56;19.90;;;17.23;;
26106;SDS011;13866;50.748;12.630;2022-09-12T01:09:23;19.77;;;16.90;;
26106;SDS011;13866;50.748;12.630;2022-09-12T01:11:49;21.30;;;19.10;;
26106;SDS011;13866;50.748;12.630;2022-09-12T01:14:17;21.13;;;19.10;;
26106;SDS011;13866;50.748;12.630;2022-09-12T01:16:44;18.83;;;17.13;;
26106;SDS011;13866;50.748;12.630;2022-09-12T01:21:53;20.57;;;17.53;;
26106;SDS011;13866;50.748;12.630;2022-09-12T01:28:04;19.67;;;17.73;;
26106;SDS011;13866;50.748;12.630;2022-09-12T01:36:24;25.43;;;18.67;;
26106;SDS011;13866;50.748;12.630;2022-09-12T01:39:04;20.57;;;18.60;;
26106;SDS011;13866;50.748;12.630;2022-09-12T01:41:50;20.67;;;18.67;;
26106;SDS011;13866;50.748;12.630;2022-09-12T01:44:45;20.10;;;18.10;;
26106;SDS011;13866;50.748;12.630;2022-09-12T01:50:02;23.70;;;20.40;;
26106;SDS011;13866;50.748;12.630;2022-09-12T01:52:33;19.20;;;17.60;;
26106;SDS011;13866;50.748;12.630;2022-09-12T01:55:12;18.80;;;16.93;;
26106;SDS011;13866;50.748;12.630;2022-09-12T01:57:44;18.83;;;17.10;;
26106;SDS011;13866;50.748;12.630;2022-09-12T02:00:15;18.80;;;17.03;;
26106;SDS011;13866;50.748;12.630;2022-09-12T02:03:02;20.63;;;17.63;;
26106;SDS011;13866;50.748;12.630;2022-09-12T02:05:42;17.40;;;16.00;;
26106;SDS011;13866;50.748;12.630;2022-09-12T02:08:19;18.83;;;17.33;;
26106;SDS011;13866;50.748;12.630;2022-09-12T02:11:05;20.30;;;17.00;;
26106;SDS011;13866;50.748;12.630;2022-09-12T02:13:38;18.43;;;16.80;;
26106;SDS011;13866;50.748;12.630;2022-09-12T02:18:41;20.00;;;17.50;;
26106;SDS011;13866;50.748;12.630;2022-09-12T02:21:10;20.20;;;18.43;;
26106;SDS011;13866;50.748;12.630;2022-09-12T02:23:37;19.67;;;17.77;;
26106;SDS011;13866;50.748;12.630;2022-09-12T02:26:09;19.43;;;17.50;;
26106;SDS011;13866;50.748;12.630;2022-09-12T02:28:42;24.23;;;18.80;;
26106;SDS011;13866;50.748;12.630;2022-09-12T02:31:20;19.97;;;18.07;;
26106;SDS011;13866;50.748;12.630;2022-09-12T02:34:00;17.97;;;16.37;;
26106;SDS011;13866;50.748;12.630;2022-09-12T02:39:45;21.53;;;17.77;;
26106;SDS011;13866;50.748;12.630;2022-09-12T02:42:11;20.67;;;18.53;;
26106;SDS011;13866;50.748;12.630;2022-09-12T02:44:37;20.03;;;18.23;;
26106;SDS011;13866;50.748;12.630;2022-09-12T02:47:19;21.57;;;19.27;;
26106;SDS011;13866;50.748;12.630;2022-09-12T02:49:51;22.87;;;20.67;;
26106;SDS011;13866;50.748;12.630;2022-09-12T02:52:18;20.53;;;17.40;;
26106;SDS011;13866;50.748;12.630;2022-09-12T02:54:44;19.50;;;17.80;;
26106;SDS011;13866;50.748;12.630;2022-09-12T02:57:14;21.40;;;19.13;;
26106;SDS011;13866;50.748;12.630;2022-09-12T02:59:41;18.63;;;16.73;;
26106;SDS011;13866;50.748;12.630;2022-09-12T03:02:21;21.23;;;19.23;;
26106;SDS011;13866;50.748;12.630;2022-09-12T03:10:46;18.00;;;16.57;;
26106;SDS011;13866;50.748;12.630;2022-09-12T03:16:32;27.10;;;19.73;;
26106;SDS011;13866;50.748;12.630;2022-09-12T03:24:31;20.50;;;18.33;;
26106;SDS011;13866;50.748;12.630;2022-09-12T03:27:21;20.70;;;17.60;;
26106;SDS011;13866;50.748;12.630;2022-09-12T03:29:53;22.30;;;20.00;;
26106;SDS011;13866;50.748;12.630;2022-09-12T03:32:38;19.20;;;17.10;;
26106;SDS011;13866;50.748;12.630;2022-09-12T03:35:08;20.73;;;18.50;;
26106;SDS011;13866;50.748;12.630;2022-09-12T03:37:34;20.33;;;18.33;;
26106;SDS011;13866;50.748;12.630;2022-09-12T03:40:00;22.60;;;20.10;;
26106;SDS011;13866;50.748;12.630;2022-09-12T03:42:26;21.10;;;18.83;;
26106;SDS011;13866;50.748;12.630;2022-09-12T03:44:52;26.20;;;20.27;;
26106;SDS011;13866;50.748;12.630;2022-09-12T03:47:17;23.63;;;19.60;;
26106;SDS011;13866;50.748;12.630;2022-09-12T03:49:44;21.53;;;19.30;;
26106;SDS011;13866;50.748;12.630;2022-09-12T03:52:10;23.07;;;20.70;;
26106;SDS011;13866;50.748;12.630;2022-09-12T03:54:36;22.10;;;19.47;;
26106;SDS011;13866;50.748;12.630;2022-09-12T03:57:01;23.47;;;19.17;;
26106;SDS011;13866;50.748;12.630;2022-09-12T03:59:27;25.37;;;20.27;;
26106;SDS011;13866;50.748;12.630;2022-09-12T04:01:52;29.10;;;20.53;;
26106;SDS011;13866;50.748;12.630;2022-09-12T04:04:17;23.03;;;19.37;;
26106;SDS011;13866;50.748;12.630;2022-09-12T04:06:43;23.37;;;20.97;;
26106;SDS011;13866;50.748;12.630;2022-09-12T04:09:08;19.30;;;17.40;;
26106;SDS011;13866;50.748;12.630;2022-09-12T04:11:34;22.40;;;19.03;;
26106;SDS011;13866;50.748;12.630;2022-09-12T04:13:59;22.13;;;19.87;;
26106;SDS011;13866;50.748;12.630;2022-09-12T04:16:25;23.10;;;20.00;;
26106;SDS011;13866;50.748;12.630;2022-09-12T04:18:51;33.87;;;23.30;;
26106;SDS011;13866;50.748;12.630;2022-09-12T04:21:17;22.67;;;20.47;;
26106;SDS011;13866;50.748;12.630;2022-09-12T04:23:45;21.37;;;19.00;;
26106;SDS011;13866;50.748;12.630;2022-09-12T04:26:12;23.87;;;21.20;;
26106;SDS011;13866;50.748;12.630;2022-09-12T04:28:38;21.80;;;19.50;;
26106;SDS011;13866;50.748;12.630;2022-09-12T04:31:06;21.30;;;19.10;;
26106;SDS011;13866;50.748;12.630;2022-09-12T04:33:42;32.10;;;21.50;;
26106;SDS011;13866;50.748;12.630;2022-09-12T04:36:09;21.53;;;19.33;;
26106;SDS011;13866;50.748;12.630;2022-09-12T04:38:38;29.83;;;21.00;;
26106;SDS011;13866;50.748;12.630;2022-09-12T04:41:17;22.40;;;20.17;;
26106;SDS011;13866;50.748;12.630;2022-09-12T04:43:43;28.57;;;19.83;;
26106;SDS011;13866;50.748;12.630;2022-09-12T04:46:13;21.50;;;19.13;;
26106;SDS011;13866;50.748;12.630;2022-09-12T04:48:40;22.40;;;19.90;;
26106;SDS011;13866;50.748;12.630;2022-09-12T04:51:07;23.13;;;20.83;;
26106;SDS011;13866;50.748;12.630;2022-09-12T04:53:37;29.00;;;21.33;;
26106;SDS011;13866;50.748;12.630;2022-09-12T04:56:04;28.83;;;20.07;;
26106;SDS011;13866;50.748;12.630;2022-09-12T04:58:31;22.20;;;18.13;;
26106;SDS011;13866;50.748;12.630;2022-09-12T05:01:30;19.40;;;17.40;;
26106;SDS011;13866;50.748;12.630;2022-09-12T05:03:49;20.87;;;19.00;;
26106;SDS011;13866;50.748;12.630;2022-09-12T05:06:16;24.97;;;20.60;;
26106;SDS011;13866;50.748;12.630;2022-09-12T05:08:44;22.60;;;19.17;;
26106;SDS011;13866;50.748;12.630;2022-09-12T05:11:10;26.60;;;18.33;;
26106;SDS011;13866;50.748;12.630;2022-09-12T05:13:38;23.30;;;20.13;;
26106;SDS011;13866;50.748;12.630;2022-09-12T05:16:04;21.90;;;19.80;;
26106;SDS011;13866;50.748;12.630;2022-09-12T05:18:31;24.93;;;21.63;;
26106;SDS011;13866;50.748;12.630;2022-09-12T05:20:57;34.03;;;20.00;;
26106;SDS011;13866;50.748;12.630;2022-09-12T05:23:24;23.07;;;19.93;;
26106;SDS011;13866;50.748;12.630;2022-09-12T05:25:53;28.40;;;21.90;;
26106;SDS011;13866;50.748;12.630;2022-09-12T05:28:20;26.43;;;21.83;;
26106;SDS011;13866;50.748;12.630;2022-09-12T05:30:47;26.70;;;21.73;;
26106;SDS011;13866;50.748;12.630;2022-09-12T05:33:13;22.83;;;20.40;;
26106;SDS011;13866;50.748;12.630;2022-09-12T05:35:39;30.33;;;23.17;;
26106;SDS011;13866;50.748;12.630;2022-09-12T05:38:05;27.30;;;21.20;;
26106;SDS011;13866;50.748;12.630;2022-09-12T05:40:32;29.17;;;21.10;;
26106;SDS011;13866;50.748;12.630;2022-09-12T05:42:58;26.83;;;22.47;;
26106;SDS011;13866;50.748;12.630;2022-09-12T05:45:24;28.00;;;23.73;;
26106;SDS011;13866;50.748;12.630;2022-09-12T05:47:51;33.13;;;23.30;;
26106;SDS011;13866;50.748;12.630;2022-09-12T05:50:18;31.07;;;22.10;;
26106;SDS011;13866;50.748;12.630;2022-09-12T05:52:43;29.60;;;23.90;;
26106;SDS011;13866;50.748;12.630;2022-09-12T05:55:09;32.30;;;24.47;;
26106;SDS011;13866;50.748;12.630;2022-09-12T05:57:35;33.60;;;26.20;;
26106;SDS011;13866;50.748;12.630;2022-09-12T06:00:01;34.63;;;26.57;;
26106;SDS011;13866;50.748;12.630;2022-09-12T06:02:27;28.07;;;24.87;;
26106;SDS011;13866;50.748;12.630;2022-09-12T06:04:53;27.20;;;23.33;;
26106;SDS011;13866;50.748;12.630;2022-09-12T06:07:18;28.00;;;22.83;;
26106;SDS011;13866;50.748;12.630;2022-09-12T06:09:44;29.03;;;23.53;;
26106;SDS011;13866;50.748;12.630;2022-09-12T06:12:09;25.67;;;21.57;;
26106;SDS011;13866;50.748;12.630;2022-09-12T06:14:35;23.83;;;21.20;;
26106;SDS011;13866;50.748;12.630;2022-09-12T06:17:00;22.90;;;19.60;;
26106;SDS011;13866;50.748;12.630;2022-09-12T06:19:26;22.30;;;20.00;;
26106;SDS011;13866;50.748;12.630;2022-09-12T06:21:52;18.97;;;16.97;;
26106;SDS011;13866;50.748;12.630;2022-09-12T06:24:18;28.50;;;24.40;;
26106;SDS011;13866;50.748;12.630;2022-09-12T06:26:45;25.73;;;23.00;;
26106;SDS011;13866;50.748;12.630;2022-09-12T06:29:14;23.67;;;21.20;;
26106;SDS011;13866;50.748;12.630;2022-09-12T06:31:40;26.40;;;19.70;;
26106;SDS011;13866;50.748;12.630;2022-09-12T06:34:08;23.20;;;19.70;;
26106;SDS011;13866;50.748;12.630;2022-09-12T06:36:36;19.00;;;17.27;;
26106;SDS011;13866;50.748;12.630;2022-09-12T06:39:06;21.53;;;19.33;;
26106;SDS011;13866;50.748;12.630;2022-09-12T06:41:34;26.43;;;19.30;;
26106;SDS011;13866;50.748;12.630;2022-09-12T06:44:00;23.60;;;18.53;;
26106;SDS011;13866;50.748;12.630;2022-09-12T06:46:26;19.10;;;17.23;;
26106;SDS011;13866;50.748;12.630;2022-09-12T06:48:52;22.80;;;18.60;;
26106;SDS011;13866;50.748;12.630;2022-09-12T06:51:19;21.00;;;17.10;;
26106;SDS011;13866;50.748;12.630;2022-09-12T06:53:45;23.10;;;18.53;;
26106;SDS011;13866;50.748;12.630;2022-09-12T06:56:13;20.47;;;18.33;;
26106;SDS011;13866;50.748;12.630;2022-09-12T06:58:41;19.57;;;17.57;;
26106;SDS011;13866;50.748;12.630;2022-09-12T07:01:09;20.67;;;18.27;;
26106;SDS011;13866;50.748;12.630;2022-09-12T07:03:36;17.60;;;15.77;;
26106;SDS011;13866;50.748;12.630;2022-09-12T07:06:06;22.27;;;17.60;;
26106;SDS011;13866;50.748;12.630;2022-09-12T07:08:32;17.87;;;16.30;;
26106;SDS011;13866;50.748;12.630;2022-09-12T07:11:06;23.60;;;17.53;;
26106;SDS011;13866;50.748;12.630;2022-09-12T07:13:37;20.67;;;16.67;;
26106;SDS011;13866;50.748;12.630;2022-09-12T07:16:03;16.33;;;14.80;;
26106;SDS011;13866;50.748;12.630;2022-09-12T07:18:30;16.13;;;14.20;;
26106;SDS011;13866;50.748;12.630;2022-09-12T07:20:59;15.70;;;14.20;;
26106;SDS011;13866;50.748;12.630;2022-09-12T07:23:26;14.17;;;12.73;;
26106;SDS011;13866;50.748;12.630;2022-09-12T07:25:52;22.83;;;15.43;;
26106;SDS011;13866;50.748;12.630;2022-09-12T07:28:20;15.27;;;13.17;;
26106;SDS011;13866;50.748;12.630;2022-09-12T07:30:45;16.00;;;12.83;;
26106;SDS011;13866;50.748;12.630;2022-09-12T07:33:11;17.10;;;13.23;;
26106;SDS011;13866;50.748;12.630;2022-09-12T07:35:36;14.23;;;12.93;;
26106;SDS011;13866;50.748;12.630;2022-09-12T07:38:02;15.57;;;14.00;;
26106;SDS011;13866;50.748;12.630;2022-09-12T07:40:28;20.90;;;15.20;;
26106;SDS011;13866;50.748;12.630;2022-09-12T07:42:53;18.17;;;14.37;;
26106;SDS011;13866;50.748;12.630;2022-09-12T07:45:19;18.70;;;13.40;;
26106;SDS011;13866;50.748;12.630;2022-09-12T07:47:44;16.87;;;14.37;;
26106;SDS011;13866;50.748;12.630;2022-09-12T07:50:10;18.50;;;15.97;;
26106;SDS011;13866;50.748;12.630;2022-09-12T07:52:35;16.47;;;14.87;;
26106;SDS011;13866;50.748;12.630;2022-09-12T07:55:01;15.53;;;14.13;;
26106;SDS011;13866;50.748;12.630;2022-09-12T07:57:27;22.40;;;15.77;;
26106;SDS011;13866;50.748;12.630;2022-09-12T07:59:52;18.37;;;16.23;;
26106;SDS011;13866;50.748;12.630;2022-09-12T08:02:17;14.80;;;13.40;;
26106;SDS011;13866;50.748;12.630;2022-09-12T08:04:44;15.87;;;14.37;;
26106;SDS011;13866;50.748;12.630;2022-09-12T08:07:10;16.03;;;14.30;;
26106;SDS011;13866;50.748;12.630;2022-09-12T08:09:36;17.63;;;14.67;;
26106;SDS011;13866;50.748;12.630;2022-09-12T08:12:02;14.80;;;13.40;;
26106;SDS011;13866;50.748;12.630;2022-09-12T08:14:27;15.50;;;13.90;;
26106;SDS011;13866;50.748;12.630;2022-09-12T08:16:53;16.47;;;14.80;;
26106;SDS011;13866;50.748;12.630;2022-09-12T08:19:19;28.27;;;14.40;;
26106;SDS011;13866;50.748;12.630;2022-09-12T08:21:46;15.17;;;13.77;;
26106;SDS011;13866;50.748;12.630;2022-09-12T08:24:12;22.57;;;13.40;;
26106;SDS011;13866;50.748;12.630;2022-09-12T08:26:37;14.20;;;12.87;;
26106;SDS011;13866;50.748;12.630;2022-09-12T08:29:03;16.10;;;14.40;;
26106;SDS011;13866;50.748;12.630;2022-09-12T08:31:29;16.70;;;13.53;;
26106;SDS011;13866;50.748;12.630;2022-09-12T08:34:00;13.13;;;11.90;;
26106;SDS011;13866;50.748;12.630;2022-09-12T08:36:27;19.17;;;12.10;;
26106;SDS011;13866;50.748;12.630;2022-09-12T08:38:54;17.80;;;12.67;;
26106;SDS011;13866;50.748;12.630;2022-09-12T08:41:28;13.20;;;12.00;;
26106;SDS011;13866;50.748;12.630;2022-09-12T08:44:04;13.67;;;12.30;;
26106;SDS011;13866;50.748;12.630;2022-09-12T08:46:48;16.40;;;12.97;;
26106;SDS011;13866;50.748;12.630;2022-09-12T08:49:32;12.93;;;11.63;;
26106;SDS011;13866;50.748;12.630;2022-09-12T08:52:06;12.50;;;11.40;;
26106;SDS011;13866;50.748;12.630;2022-09-12T08:54:38;13.60;;;10.57;;
26106;SDS011;13866;50.748;12.630;2022-09-12T08:57:07;11.57;;;10.50;;
26106;SDS011;13866;50.748;12.630;2022-09-12T08:59:36;15.10;;;10.83;;
26106;SDS011;13866;50.748;12.630;2022-09-12T09:02:04;16.27;;;12.27;;
26106;SDS011;13866;50.748;12.630;2022-09-12T09:05:05;10.03;;;9.37;;
26106;SDS011;13866;50.748;12.630;2022-09-12T09:10:53;10.80;;;9.77;;
26106;SDS011;13866;50.748;12.630;2022-09-12T09:13:58;9.97;;;9.20;;
26106;SDS011;13866;50.748;12.630;2022-09-12T09:17:03;11.27;;;10.37;;
26106;SDS011;13866;50.748;12.630;2022-09-12T09:19:37;9.33;;;8.70;;
26106;SDS011;13866;50.748;12.630;2022-09-12T09:22:53;9.10;;;8.47;;
26106;SDS011;13866;50.748;12.630;2022-09-12T09:25:08;7.77;;;7.10;;
26106;SDS011;13866;50.748;12.630;2022-09-12T09:27:47;8.00;;;7.50;;
26106;SDS011;13866;50.748;12.630;2022-09-12T09:30:18;8.37;;;7.80;;
26106;SDS011;13866;50.748;12.630;2022-09-12T09:32:51;7.53;;;7.00;;
26106;SDS011;13866;50.748;12.630;2022-09-12T09:35:23;7.10;;;6.50;;
26106;SDS011;13866;50.748;12.630;2022-09-12T09:40:51;6.60;;;6.23;;
26106;SDS011;13866;50.748;12.630;2022-09-12T09:43:38;6.20;;;6.00;;
26106;SDS011;13866;50.748;12.630;2022-09-12T09:46:03;6.67;;;6.37;;
26106;SDS011;13866;50.748;12.630;2022-09-12T09:48:30;5.50;;;5.30;;
26106;SDS011;13866;50.748;12.630;2022-09-12T09:50:59;6.13;;;5.83;;
26106;SDS011;13866;50.748;12.630;2022-09-12T09:59:07;7.30;;;6.80;;
26106;SDS011;13866;50.748;12.630;2022-09-12T10:01:58;7.87;;;7.40;;
26106;SDS011;13866;50.748;12.630;2022-09-12T10:04:34;8.27;;;6.47;;
26106;SDS011;13866;50.748;12.630;2022-09-12T10:07:03;7.43;;;6.80;;
26106;SDS011;13866;50.748;12.630;2022-09-12T10:09:33;8.20;;;6.67;;
26106;SDS011;13866;50.748;12.630;2022-09-12T10:14:55;7.20;;;5.90;;
26106;SDS011;13866;50.748;12.630;2022-09-12T10:17:24;4.87;;;4.67;;
26106;SDS011;13866;50.748;12.630;2022-09-12T10:20:03;2.90;;;2.80;;
26106;SDS011;13866;50.748;12.630;2022-09-12T10:22:29;3.77;;;3.40;;
26106;SDS011;13866;50.748;12.630;2022-09-12T10:24:58;2.53;;;2.33;;
26106;SDS011;13866;50.748;12.630;2022-09-12T10:27:27;2.00;;;2.00;;
26106;SDS011;13866;50.748;12.630;2022-09-12T10:32:25;2.23;;;2.23;;
26106;SDS011;13866;50.748;12.630;2022-09-12T10:34:55;3.43;;;3.13;;
26106;SDS011;13866;50.748;12.630;2022-09-12T10:37:30;2.77;;;2.53;;
26106;SDS011;13866;50.748;12.630;2022-09-12T10:39:58;3.97;;;3.70;;
26106;SDS011;13866;50.748;12.630;2022-09-12T10:42:40;3.00;;;3.00;;
26106;SDS011;13866;50.748;12.630;2022-09-12T10:47:44;3.60;;;3.30;;
26106;SDS011;13866;50.748;12.630;2022-09-12T10:50:20;2.73;;;2.63;;
26106;SDS011;13866;50.748;12.630;2022-09-12T10:52:52;2.90;;;2.80;;
26106;SDS011;13866;50.748;12.630;2022-09-12T10:55:20;2.73;;;2.63;;
26106;SDS011;13866;50.748;12.630;2022-09-12T10:57:59;2.73;;;2.73;;
26106;SDS011;13866;50.748;12.630;2022-09-12T11:00:43;2.30;;;2.30;;
26106;SDS011;13866;50.748;12.630;2022-09-12T11:03:21;2.30;;;2.30;;
26106;SDS011;13866;50.748;12.630;2022-09-12T11:05:56;2.53;;;2.53;;
26106;SDS011;13866;50.748;12.630;2022-09-12T11:08:36;2.20;;;2.20;;
26106;SDS011;13866;50.748;12.630;2022-09-12T11:11:37;2.10;;;2.10;;
26106;SDS011;13866;50.748;12.630;2022-09-12T11:17:05;1.80;;;1.80;;
26106;SDS011;13866;50.748;12.630;2022-09-12T11:19:44;2.33;;;2.13;;
26106;SDS011;13866;50.748;12.630;2022-09-12T11:22:29;3.00;;;2.80;;
26106;SDS011;13866;50.748;12.630;2022-09-12T11:25:18;2.40;;;2.30;;
26106;SDS011;13866;50.748;12.630;2022-09-12T11:30:26;2.37;;;2.30;;
26106;SDS011;13866;50.748;12.630;2022-09-12T11:35:51;2.57;;;2.57;;
26106;SDS011;13866;50.748;12.630;2022-09-12T11:40:55;1.60;;;1.60;;
26106;SDS011;13866;50.748;12.630;2022-09-12T11:43:38;1.37;;;1.37;;
26106;SDS011;13866;50.748;12.630;2022-09-12T11:48:47;2.07;;;2.07;;
26106;SDS011;13866;50.748;12.630;2022-09-12T11:52:05;4.13;;;2.50;;
26106;SDS011;13866;50.748;12.630;2022-09-12T12:00:04;2.30;;;2.30;;
26106;SDS011;13866;50.748;12.630;2022-09-12T12:02:38;1.63;;;1.63;;
26106;SDS011;13866;50.748;12.630;2022-09-12T12:05:27;8.83;;;2.47;;
26106;SDS011;13866;50.748;12.630;2022-09-12T12:07:59;2.30;;;2.30;;
26106;SDS011;13866;50.748;12.630;2022-09-12T12:15:46;2.60;;;2.50;;
26106;SDS011;13866;50.748;12.630;2022-09-12T12:18:16;1.63;;;1.63;;
26106;SDS011;13866;50.748;12.630;2022-09-12T12:20:44;2.57;;;2.47;;
26106;SDS011;13866;50.748;12.630;2022-09-12T12:23:26;3.33;;;2.13;;
26106;SDS011;13866;50.748;12.630;2022-09-12T12:25:56;3.07;;;2.00;;
26106;SDS011;13866;50.748;12.630;2022-09-12T12:31:13;2.53;;;2.43;;
26106;SDS011;13866;50.748;12.630;2022-09-12T12:36:07;1.73;;;1.73;;
26106;SDS011;13866;50.748;12.630;2022-09-12T12:38:38;1.33;;;1.33;;
26106;SDS011;13866;50.748;12.630;2022-09-12T12:43:46;2.03;;;1.93;;
26106;SDS011;13866;50.748;12.630;2022-09-12T12:46:16;1.57;;;1.57;;
26106;SDS011;13866;50.748;12.630;2022-09-12T12:48:45;1.40;;;1.40;;
26106;SDS011;13866;50.748;12.630;2022-09-12T12:51:38;1.57;;;1.57;;
26106;SDS011;13866;50.748;12.630;2022-09-12T12:54:29;1.23;;;1.23;;
26106;SDS011;13866;50.748;12.630;2022-09-12T12:57:04;1.93;;;1.83;;
26106;SDS011;13866;50.748;12.630;2022-09-12T12:59:30;1.60;;;1.60;;
26106;SDS011;13866;50.748;12.630;2022-09-12T13:01:56;1.80;;;1.80;;
26106;SDS011;13866;50.748;12.630;2022-09-12T13:04:24;1.90;;;1.90;;
26106;SDS011;13866;50.748;12.630;2022-09-12T13:07:01;1.43;;;1.43;;
26106;SDS011;13866;50.748;12.630;2022-09-12T13:09:38;1.20;;;1.20;;
26106;SDS011;13866;50.748;12.630;2022-09-12T13:12:20;1.63;;;1.63;;
26106;SDS011;13866;50.748;12.630;2022-09-12T13:17:19;1.57;;;1.57;;
26106;SDS011;13866;50.748;12.630;2022-09-12T13:19:46;1.10;;;1.10;;
26106;SDS011;13866;50.748;12.630;2022-09-12T13:22:13;1.43;;;1.43;;
26106;SDS011;13866;50.748;12.630;2022-09-12T13:24:45;2.67;;;1.53;;
26106;SDS011;13866;50.748;12.630;2022-09-12T13:27:31;1.20;;;1.20;;
26106;SDS011;13866;50.748;12.630;2022-09-12T13:30:13;1.40;;;1.40;;
26106;SDS011;13866;50.748;12.630;2022-09-12T13:32:40;1.20;;;1.20;;
26106;SDS011;13866;50.748;12.630;2022-09-12T13:35:12;1.43;;;1.43;;
26106;SDS011;13866;50.748;12.630;2022-09-12T13:37:49;1.60;;;1.60;;
26106;SDS011;13866;50.748;12.630;2022-09-12T13:43:12;1.57;;;1.57;;
26106;SDS011;13866;50.748;12.630;2022-09-12T13:45:39;1.90;;;1.90;;
26106;SDS011;13866;50.748;12.630;2022-09-12T13:48:20;2.20;;;2.20;;
26106;SDS011;13866;50.748;12.630;2022-09-12T13:50:50;9.80;;;2.13;;
26106;SDS011;13866;50.748;12.630;2022-09-12T13:53:22;2.40;;;1.40;;
26106;SDS011;13866;50.748;12.630;2022-09-12T13:55:52;1.50;;;1.50;;
26106;SDS011;13866;50.748;12.630;2022-09-12T13:58:22;2.23;;;2.13;;
26106;SDS011;13866;50.748;12.630;2022-09-12T14:01:10;2.10;;;2.10;;
26106;SDS011;13866;50.748;12.630;2022-09-12T14:03:41;2.80;;;2.70;;
26106;SDS011;13866;50.748;12.630;2022-09-12T14:06:50;2.03;;;1.83;;
26106;SDS011;13866;50.748;12.630;2022-09-12T14:09:24;1.67;;;1.63;;
26106;SDS011;13866;50.748;12.630;2022-09-12T14:11:53;6.33;;;2.50;;
26106;SDS011;13866;50.748;12.630;2022-09-12T14:14:24;3.17;;;2.13;;
26106;SDS011;13866;50.748;12.630;2022-09-12T14:16:55;2.17;;;2.17;;
26106;SDS011;13866;50.748;12.630;2022-09-12T14:19:22;2.20;;;2.20;;
26106;SDS011;13866;50.748;12.630;2022-09-12T14:21:50;2.40;;;2.07;;
26106;SDS011;13866;50.748;12.630;2022-09-12T14:24:17;1.77;;;1.77;;
26106;SDS011;13866;50.748;12.630;2022-09-12T14:26:44;1.70;;;1.67;;
26106;SDS011;13866;50.748;12.630;2022-09-12T14:29:11;1.67;;;1.67;;
26106;SDS011;13866;50.748;12.630;2022-09-12T14:31:40;7.10;;;2.27;;
26106;SDS011;13866;50.748;12.630;2022-09-12T14:34:09;7.70;;;2.33;;
26106;SDS011;13866;50.748;12.630;2022-09-12T14:36:43;1.90;;;1.90;;
26106;SDS011;13866;50.748;12.630;2022-09-12T14:39:15;2.20;;;2.20;;
26106;SDS011;13866;50.748;12.630;2022-09-12T14:41:45;2.77;;;2.57;;
26106;SDS011;13866;50.748;12.630;2022-09-12T14:44:18;2.60;;;2.20;;
26106;SDS011;13866;50.748;12.630;2022-09-12T14:46:48;2.43;;;2.43;;
26106;SDS011;13866;50.748;12.630;2022-09-12T14:54:33;2.00;;;1.90;;
26106;SDS011;13866;50.748;12.630;2022-09-12T14:57:02;2.30;;;2.30;;
26106;SDS011;13866;50.748;12.630;2022-09-12T15:04:47;1.90;;;1.90;;
26106;SDS011;13866;50.748;12.630;2022-09-12T15:07:37;2.07;;;2.07;;
26106;SDS011;13866;50.748;12.630;2022-09-12T15:12:37;2.30;;;2.20;;
26106;SDS011;13866;50.748;12.630;2022-09-12T15:15:13;1.97;;;1.97;;
26106;SDS011;13866;50.748;12.630;2022-09-12T15:17:43;1.80;;;1.80;;
26106;SDS011;13866;50.748;12.630;2022-09-12T15:20:08;2.43;;;2.20;;
26106;SDS011;13866;50.748;12.630;2022-09-12T15:22:35;1.70;;;1.70;;
26106;SDS011;13866;50.748;12.630;2022-09-12T15:25:02;2.30;;;2.20;;
26106;SDS011;13866;50.748;12.630;2022-09-12T15:27:28;1.93;;;1.93;;
26106;SDS011;13866;50.748;12.630;2022-09-12T15:29:54;6.57;;;1.93;;
26106;SDS011;13866;50.748;12.630;2022-09-12T15:32:27;2.20;;;2.20;;
26106;SDS011;13866;50.748;12.630;2022-09-12T15:34:54;4.10;;;2.20;;
26106;SDS011;13866;50.748;12.630;2022-09-12T15:37:20;1.77;;;1.67;;
26106;SDS011;13866;50.748;12.630;2022-09-12T15:39:47;7.43;;;2.30;;
26106;SDS011;13866;50.748;12.630;2022-09-12T15:42:13;8.23;;;2.20;;
26106;SDS011;13866;50.748;12.630;2022-09-12T15:44:39;2.60;;;2.60;;
26106;SDS011;13866;50.748;12.630;2022-09-12T15:47:05;3.33;;;1.47;;
26106;SDS011;13866;50.748;12.630;2022-09-12T15:49:34;1.73;;;1.70;;
26106;SDS011;13866;50.748;12.630;2022-09-12T15:52:00;1.70;;;1.70;;
26106;SDS011;13866;50.748;12.630;2022-09-12T15:54:25;3.70;;;2.50;;
26106;SDS011;13866;50.748;12.630;2022-09-12T15:56:51;1.70;;;1.70;;
26106;SDS011;13866;50.748;12.630;2022-09-12T15:59:16;1.87;;;1.77;;
26106;SDS011;13866;50.748;12.630;2022-09-12T16:01:42;2.30;;;2.20;;
26106;SDS011;13866;50.748;12.630;2022-09-12T16:04:20;1.90;;;1.90;;
26106;SDS011;13866;50.748;12.630;2022-09-12T16:06:48;2.10;;;2.10;;
26106;SDS011;13866;50.748;12.630;2022-09-12T16:09:14;1.83;;;1.83;;
26106;SDS011;13866;50.748;12.630;2022-09-12T16:11:40;1.80;;;1.70;;
26106;SDS011;13866;50.748;12.630;2022-09-12T16:14:05;2.20;;;2.10;;
26106;SDS011;13866;50.748;12.630;2022-09-12T16:16:31;1.73;;;1.73;;
26106;SDS011;13866;50.748;12.630;2022-09-12T16:18:57;2.10;;;2.00;;
26106;SDS011;13866;50.748;12.630;2022-09-12T16:21:22;1.90;;;1.90;;
26106;SDS011;13866;50.748;12.630;2022-09-12T16:23:49;2.37;;;2.37;;
26106;SDS011;13866;50.748;12.630;2022-09-12T16:26:14;2.00;;;1.90;;
26106;SDS011;13866;50.748;12.630;2022-09-12T16:28:41;2.13;;;2.13;;